sensor_id;sensor_type;location;lat;lon;timestamp;temperature;humidity
913;DHT22;443;51.448;7.028;2023-05-07T00:01:41;16.40;74.40
913;DHT22;443;51.448;7.028;2023-05-07T00:04:09;16.50;74.50
913;DHT22;443;51.448;7.028;2023-05-07T00:06:36;16.40;74.40
913;DHT22;443;51.448;7.028;2023-05-07T00:09:03;16.50;74.50
913;DHT22;443;51.448;7.028;2023-05-07T00:11:29;16.50;74.50
913;DHT22;443;51.448;7.028;2023-05-07T00:13:56;16.50;74.40
913;DHT22;443;51.448;7.028;2023-05-07T00:16:23;16.50;74.50
913;DHT22;443;51.448;7.028;2023-05-07T00:18:50;16.40;74.40
913;DHT22;443;51.448;7.028;2023-05-07T00:21:18;16.40;74.40
913;DHT22;443;51.448;7.028;2023-05-07T00:23:45;16.50;74.50
913;DHT22;443;51.448;7.028;2023-05-07T00:26:11;16.50;74.50
913;DHT22;443;51.448;7.028;2023-05-07T00:28:38;16.50;74.50
913;DHT22;443;51.448;7.028;2023-05-07T00:31:05;16.50;74.50
913;DHT22;443;51.448;7.028;2023-05-07T00:33:32;16.50;74.50
913;DHT22;443;51.448;7.028;2023-05-07T00:35:58;16.40;74.40
913;DHT22;443;51.448;7.028;2023-05-07T00:38:27;16.50;74.60
913;DHT22;443;51.448;7.028;2023-05-07T00:40:54;16.40;74.40
913;DHT22;443;51.448;7.028;2023-05-07T00:43:21;16.40;74.40
913;DHT22;443;51.448;7.028;2023-05-07T00:45:48;16.40;74.40
913;DHT22;443;51.448;7.028;2023-05-07T00:48:15;16.40;74.50
913;DHT22;443;51.448;7.028;2023-05-07T00:50:43;16.50;74.70
913;DHT22;443;51.448;7.028;2023-05-07T00:53:11;16.50;74.70
913;DHT22;443;51.448;7.028;2023-05-07T00:55:39;16.40;74.50
913;DHT22;443;51.448;7.028;2023-05-07T00:58:06;16.40;74.60
913;DHT22;443;51.448;7.028;2023-05-07T01:00:33;16.40;74.50
913;DHT22;443;51.448;7.028;2023-05-07T01:03:00;16.40;74.60
913;DHT22;443;51.448;7.028;2023-05-07T01:05:27;16.40;74.60
913;DHT22;443;51.448;7.028;2023-05-07T01:07:56;16.40;74.60
913;DHT22;443;51.448;7.028;2023-05-07T01:10:24;16.40;74.70
913;DHT22;443;51.448;7.028;2023-05-07T01:12:54;16.40;74.70
913;DHT22;443;51.448;7.028;2023-05-07T01:15:21;16.40;74.70
913;DHT22;443;51.448;7.028;2023-05-07T01:17:47;16.40;74.70
913;DHT22;443;51.448;7.028;2023-05-07T01:20:14;16.40;74.70
913;DHT22;443;51.448;7.028;2023-05-07T01:22:43;16.40;74.70
913;DHT22;443;51.448;7.028;2023-05-07T01:25:10;16.40;74.70
913;DHT22;443;51.448;7.028;2023-05-07T01:27:37;16.40;74.70
913;DHT22;443;51.448;7.028;2023-05-07T01:30:04;16.40;74.90
913;DHT22;443;51.448;7.028;2023-05-07T01:32:35;16.40;74.70
913;DHT22;443;51.448;7.028;2023-05-07T01:35:05;16.40;74.90
913;DHT22;443;51.448;7.028;2023-05-07T01:37:34;16.40;74.90
913;DHT22;443;51.448;7.028;2023-05-07T01:40:03;16.40;75.00
913;DHT22;443;51.448;7.028;2023-05-07T01:42:31;16.40;74.80
913;DHT22;443;51.448;7.028;2023-05-07T01:44:58;16.40;74.80
913;DHT22;443;51.448;7.028;2023-05-07T01:47:25;16.40;75.00
913;DHT22;443;51.448;7.028;2023-05-07T01:49:52;16.40;75.00
913;DHT22;443;51.448;7.028;2023-05-07T01:52:18;16.40;74.90
913;DHT22;443;51.448;7.028;2023-05-07T01:54:45;16.40;75.00
913;DHT22;443;51.448;7.028;2023-05-07T01:57:13;16.40;74.90
913;DHT22;443;51.448;7.028;2023-05-07T01:59:40;16.40;75.00
913;DHT22;443;51.448;7.028;2023-05-07T02:02:07;16.40;75.00
913;DHT22;443;51.448;7.028;2023-05-07T02:04:33;16.40;74.90
913;DHT22;443;51.448;7.028;2023-05-07T02:07:00;16.40;75.60
913;DHT22;443;51.448;7.028;2023-05-07T02:09:27;16.40;74.90
913;DHT22;443;51.448;7.028;2023-05-07T02:11:54;16.40;74.90
913;DHT22;443;51.448;7.028;2023-05-07T02:14:22;16.40;74.90
913;DHT22;443;51.448;7.028;2023-05-07T02:16:49;16.40;75.00
913;DHT22;443;51.448;7.028;2023-05-07T02:19:16;16.40;75.10
913;DHT22;443;51.448;7.028;2023-05-07T02:21:43;16.40;75.00
913;DHT22;443;51.448;7.028;2023-05-07T02:24:10;16.40;75.00
913;DHT22;443;51.448;7.028;2023-05-07T02:26:37;16.40;75.00
913;DHT22;443;51.448;7.028;2023-05-07T02:29:03;16.40;75.00
913;DHT22;443;51.448;7.028;2023-05-07T02:31:31;16.40;75.00
913;DHT22;443;51.448;7.028;2023-05-07T02:33:59;16.40;75.00
913;DHT22;443;51.448;7.028;2023-05-07T02:36:26;16.40;75.00
913;DHT22;443;51.448;7.028;2023-05-07T02:38:53;16.40;75.00
913;DHT22;443;51.448;7.028;2023-05-07T02:41:20;16.40;75.10
913;DHT22;443;51.448;7.028;2023-05-07T02:43:47;16.40;75.00
913;DHT22;443;51.448;7.028;2023-05-07T02:46:13;16.40;75.00
913;DHT22;443;51.448;7.028;2023-05-07T02:48:42;16.40;75.10
913;DHT22;443;51.448;7.028;2023-05-07T02:51:09;16.40;75.10
913;DHT22;443;51.448;7.028;2023-05-07T02:53:36;16.40;75.20
913;DHT22;443;51.448;7.028;2023-05-07T02:56:03;16.30;75.00
913;DHT22;443;51.448;7.028;2023-05-07T02:58:31;16.30;75.10
913;DHT22;443;51.448;7.028;2023-05-07T03:00:57;16.40;75.20
913;DHT22;443;51.448;7.028;2023-05-07T03:03:24;16.30;75.10
913;DHT22;443;51.448;7.028;2023-05-07T03:05:53;16.40;75.30
913;DHT22;443;51.448;7.028;2023-05-07T03:08:19;16.30;75.10
913;DHT22;443;51.448;7.028;2023-05-07T03:10:46;16.30;75.30
913;DHT22;443;51.448;7.028;2023-05-07T03:13:13;16.30;75.20
913;DHT22;443;51.448;7.028;2023-05-07T03:15:40;16.30;75.30
913;DHT22;443;51.448;7.028;2023-05-07T03:18:07;16.30;75.30
913;DHT22;443;51.448;7.028;2023-05-07T03:20:33;16.30;75.30
913;DHT22;443;51.448;7.028;2023-05-07T03:23:03;16.30;75.30
913;DHT22;443;51.448;7.028;2023-05-07T03:25:30;16.30;75.40
913;DHT22;443;51.448;7.028;2023-05-07T03:27:57;16.30;75.40
913;DHT22;443;51.448;7.028;2023-05-07T03:30:23;16.30;75.40
913;DHT22;443;51.448;7.028;2023-05-07T03:32:50;16.30;75.40
913;DHT22;443;51.448;7.028;2023-05-07T03:35:17;16.30;75.40
913;DHT22;443;51.448;7.028;2023-05-07T03:37:44;16.30;75.40
913;DHT22;443;51.448;7.028;2023-05-07T03:40:12;16.30;75.50
913;DHT22;443;51.448;7.028;2023-05-07T03:42:39;16.30;75.40
913;DHT22;443;51.448;7.028;2023-05-07T03:45:07;16.30;75.40
913;DHT22;443;51.448;7.028;2023-05-07T03:47:34;16.30;75.40
913;DHT22;443;51.448;7.028;2023-05-07T03:50:01;16.30;75.60
913;DHT22;443;51.448;7.028;2023-05-07T03:52:27;16.30;75.70
913;DHT22;443;51.448;7.028;2023-05-07T03:54:54;16.30;75.60
913;DHT22;443;51.448;7.028;2023-05-07T03:57:22;16.30;75.60
913;DHT22;443;51.448;7.028;2023-05-07T03:59:49;16.30;75.60
913;DHT22;443;51.448;7.028;2023-05-07T04:02:16;16.30;75.60
913;DHT22;443;51.448;7.028;2023-05-07T04:04:42;16.30;75.60
913;DHT22;443;51.448;7.028;2023-05-07T04:07:09;16.30;75.60
913;DHT22;443;51.448;7.028;2023-05-07T04:09:36;16.30;75.70
913;DHT22;443;51.448;7.028;2023-05-07T04:12:03;16.30;75.70
913;DHT22;443;51.448;7.028;2023-05-07T04:14:31;16.30;75.70
913;DHT22;443;51.448;7.028;2023-05-07T04:16:58;16.30;75.70
913;DHT22;443;51.448;7.028;2023-05-07T04:19:25;16.30;75.90
913;DHT22;443;51.448;7.028;2023-05-07T04:21:52;16.30;75.90
913;DHT22;443;51.448;7.028;2023-05-07T04:24:18;16.30;75.80
913;DHT22;443;51.448;7.028;2023-05-07T04:26:46;16.30;75.70
913;DHT22;443;51.448;7.028;2023-05-07T04:29:12;16.30;75.70
913;DHT22;443;51.448;7.028;2023-05-07T04:31:40;16.30;75.60
913;DHT22;443;51.448;7.028;2023-05-07T04:34:09;16.30;75.70
913;DHT22;443;51.448;7.028;2023-05-07T04:36:37;16.30;75.70
913;DHT22;443;51.448;7.028;2023-05-07T04:39:04;16.30;75.60
913;DHT22;443;51.448;7.028;2023-05-07T04:41:31;16.30;75.60
913;DHT22;443;51.448;7.028;2023-05-07T04:43:58;16.30;75.60
913;DHT22;443;51.448;7.028;2023-05-07T04:46:25;16.30;75.70
913;DHT22;443;51.448;7.028;2023-05-07T04:48:53;16.30;75.60
913;DHT22;443;51.448;7.028;2023-05-07T04:51:20;16.30;75.80
913;DHT22;443;51.448;7.028;2023-05-07T04:53:47;16.30;75.80
913;DHT22;443;51.448;7.028;2023-05-07T04:56:13;16.30;75.70
913;DHT22;443;51.448;7.028;2023-05-07T04:58:40;16.30;75.80
913;DHT22;443;51.448;7.028;2023-05-07T05:01:07;16.30;75.80
913;DHT22;443;51.448;7.028;2023-05-07T05:03:34;16.30;75.70
913;DHT22;443;51.448;7.028;2023-05-07T05:06:02;16.30;75.60
913;DHT22;443;51.448;7.028;2023-05-07T05:08:29;16.30;75.60
913;DHT22;443;51.448;7.028;2023-05-07T05:10:56;16.30;75.70
913;DHT22;443;51.448;7.028;2023-05-07T05:13:23;16.30;75.70
913;DHT22;443;51.448;7.028;2023-05-07T05:15:50;16.30;75.70
913;DHT22;443;51.448;7.028;2023-05-07T05:18:17;16.30;75.70
913;DHT22;443;51.448;7.028;2023-05-07T05:20:43;16.30;75.70
913;DHT22;443;51.448;7.028;2023-05-07T05:23:12;16.30;75.60
913;DHT22;443;51.448;7.028;2023-05-07T05:25:38;16.30;75.60
913;DHT22;443;51.448;7.028;2023-05-07T05:28:05;16.30;75.60
913;DHT22;443;51.448;7.028;2023-05-07T05:30:32;16.30;75.60
913;DHT22;443;51.448;7.028;2023-05-07T05:32:59;16.30;75.50
913;DHT22;443;51.448;7.028;2023-05-07T05:35:26;16.30;75.50
913;DHT22;443;51.448;7.028;2023-05-07T05:37:52;16.30;75.50
913;DHT22;443;51.448;7.028;2023-05-07T05:40:20;16.30;76.00
913;DHT22;443;51.448;7.028;2023-05-07T05:42:47;16.30;75.50
913;DHT22;443;51.448;7.028;2023-05-07T05:45:14;16.30;75.50
913;DHT22;443;51.448;7.028;2023-05-07T05:47:41;16.30;75.50
913;DHT22;443;51.448;7.028;2023-05-07T05:50:08;16.30;75.60
913;DHT22;443;51.448;7.028;2023-05-07T05:52:35;16.30;75.50
913;DHT22;443;51.448;7.028;2023-05-07T05:55:02;16.30;75.50
913;DHT22;443;51.448;7.028;2023-05-07T05:57:30;16.40;75.50
913;DHT22;443;51.448;7.028;2023-05-07T05:59:57;16.40;75.70
913;DHT22;443;51.448;7.028;2023-05-07T06:02:24;16.40;75.50
913;DHT22;443;51.448;7.028;2023-05-07T06:04:50;16.40;75.50
913;DHT22;443;51.448;7.028;2023-05-07T06:07:17;16.40;75.50
913;DHT22;443;51.448;7.028;2023-05-07T06:09:44;16.40;75.50
913;DHT22;443;51.448;7.028;2023-05-07T06:12:11;16.40;75.50
913;DHT22;443;51.448;7.028;2023-05-07T06:14:39;16.40;75.60
913;DHT22;443;51.448;7.028;2023-05-07T06:17:06;16.40;75.60
913;DHT22;443;51.448;7.028;2023-05-07T06:19:33;16.40;76.30
913;DHT22;443;51.448;7.028;2023-05-07T06:22:00;16.40;75.60
913;DHT22;443;51.448;7.028;2023-05-07T06:24:28;16.40;75.60
913;DHT22;443;51.448;7.028;2023-05-07T06:26:55;16.40;75.50
913;DHT22;443;51.448;7.028;2023-05-07T06:29:23;16.40;75.50
913;DHT22;443;51.448;7.028;2023-05-07T06:31:52;16.40;75.50
913;DHT22;443;51.448;7.028;2023-05-07T06:34:19;16.40;75.40
913;DHT22;443;51.448;7.028;2023-05-07T06:36:46;16.40;75.40
913;DHT22;443;51.448;7.028;2023-05-07T06:39:12;16.40;75.40
913;DHT22;443;51.448;7.028;2023-05-07T06:41:39;16.40;75.50
913;DHT22;443;51.448;7.028;2023-05-07T06:44:06;16.40;75.40
913;DHT22;443;51.448;7.028;2023-05-07T06:46:33;16.40;75.40
913;DHT22;443;51.448;7.028;2023-05-07T06:49:01;16.40;75.30
913;DHT22;443;51.448;7.028;2023-05-07T06:51:28;16.40;75.30
913;DHT22;443;51.448;7.028;2023-05-07T06:53:55;16.40;75.30
913;DHT22;443;51.448;7.028;2023-05-07T06:56:22;16.40;75.50
913;DHT22;443;51.448;7.028;2023-05-07T06:58:49;16.40;75.50
913;DHT22;443;51.448;7.028;2023-05-07T07:01:16;16.40;75.50
913;DHT22;443;51.448;7.028;2023-05-07T07:03:43;16.40;75.50
913;DHT22;443;51.448;7.028;2023-05-07T07:06:11;16.40;75.50
913;DHT22;443;51.448;7.028;2023-05-07T07:08:37;16.40;75.40
913;DHT22;443;51.448;7.028;2023-05-07T07:11:04;16.40;75.40
913;DHT22;443;51.448;7.028;2023-05-07T07:13:31;16.40;75.50
913;DHT22;443;51.448;7.028;2023-05-07T07:15:58;16.40;75.50
913;DHT22;443;51.448;7.028;2023-05-07T07:18:25;16.40;75.30
913;DHT22;443;51.448;7.028;2023-05-07T07:20:51;16.40;75.30
913;DHT22;443;51.448;7.028;2023-05-07T07:23:20;16.40;75.40
913;DHT22;443;51.448;7.028;2023-05-07T07:25:46;16.40;75.40
913;DHT22;443;51.448;7.028;2023-05-07T07:28:13;16.50;75.50
913;DHT22;443;51.448;7.028;2023-05-07T07:30:40;16.50;75.50
913;DHT22;443;51.448;7.028;2023-05-07T07:33:07;16.50;75.50
913;DHT22;443;51.448;7.028;2023-05-07T07:35:34;16.50;75.40
913;DHT22;443;51.448;7.028;2023-05-07T07:38:00;16.50;75.30
913;DHT22;443;51.448;7.028;2023-05-07T07:40:29;16.50;75.40
913;DHT22;443;51.448;7.028;2023-05-07T07:42:56;16.50;75.20
913;DHT22;443;51.448;7.028;2023-05-07T07:45:24;16.50;75.30
913;DHT22;443;51.448;7.028;2023-05-07T07:47:50;16.50;75.20
913;DHT22;443;51.448;7.028;2023-05-07T07:50:17;16.50;75.10
913;DHT22;443;51.448;7.028;2023-05-07T07:52:44;16.50;75.20
913;DHT22;443;51.448;7.028;2023-05-07T07:55:11;16.50;75.40
913;DHT22;443;51.448;7.028;2023-05-07T07:57:39;16.50;75.30
913;DHT22;443;51.448;7.028;2023-05-07T08:00:07;16.50;75.20
913;DHT22;443;51.448;7.028;2023-05-07T08:02:34;16.50;75.20
913;DHT22;443;51.448;7.028;2023-05-07T08:05:01;16.50;75.40
913;DHT22;443;51.448;7.028;2023-05-07T08:07:28;16.50;75.30
913;DHT22;443;51.448;7.028;2023-05-07T08:09:55;16.50;75.20
913;DHT22;443;51.448;7.028;2023-05-07T08:12:22;16.50;75.20
913;DHT22;443;51.448;7.028;2023-05-07T08:14:50;16.50;75.30
913;DHT22;443;51.448;7.028;2023-05-07T08:17:17;16.50;75.20
913;DHT22;443;51.448;7.028;2023-05-07T08:19:44;16.50;75.20
913;DHT22;443;51.448;7.028;2023-05-07T08:22:11;16.50;75.20
913;DHT22;443;51.448;7.028;2023-05-07T08:24:38;16.50;75.20
913;DHT22;443;51.448;7.028;2023-05-07T08:27:05;16.60;75.10
913;DHT22;443;51.448;7.028;2023-05-07T08:29:31;16.60;75.10
913;DHT22;443;51.448;7.028;2023-05-07T08:31:59;16.60;75.20
913;DHT22;443;51.448;7.028;2023-05-07T08:34:26;16.60;75.20
913;DHT22;443;51.448;7.028;2023-05-07T08:36:53;16.60;75.20
913;DHT22;443;51.448;7.028;2023-05-07T08:39:20;16.60;75.20
913;DHT22;443;51.448;7.028;2023-05-07T08:41:48;16.60;75.20
913;DHT22;443;51.448;7.028;2023-05-07T08:44:16;16.60;75.20
913;DHT22;443;51.448;7.028;2023-05-07T08:46:45;16.60;74.90
913;DHT22;443;51.448;7.028;2023-05-07T08:49:15;16.60;75.00
913;DHT22;443;51.448;7.028;2023-05-07T08:51:41;16.60;74.80
913;DHT22;443;51.448;7.028;2023-05-07T08:54:09;16.60;74.80
913;DHT22;443;51.448;7.028;2023-05-07T08:56:37;16.60;74.90
913;DHT22;443;51.448;7.028;2023-05-07T08:59:05;16.60;74.40
913;DHT22;443;51.448;7.028;2023-05-07T09:01:32;16.70;74.70
913;DHT22;443;51.448;7.028;2023-05-07T09:04:01;16.70;74.80
913;DHT22;443;51.448;7.028;2023-05-07T09:06:29;16.70;74.60
913;DHT22;443;51.448;7.028;2023-05-07T09:08:56;16.70;75.30
913;DHT22;443;51.448;7.028;2023-05-07T09:11:24;16.70;74.20
913;DHT22;443;51.448;7.028;2023-05-07T09:13:54;16.70;74.40
913;DHT22;443;51.448;7.028;2023-05-07T09:16:22;16.70;74.90
913;DHT22;443;51.448;7.028;2023-05-07T09:18:52;16.70;74.60
913;DHT22;443;51.448;7.028;2023-05-07T09:21:20;16.70;74.80
913;DHT22;443;51.448;7.028;2023-05-07T09:23:50;16.70;74.50
913;DHT22;443;51.448;7.028;2023-05-07T09:26:18;16.70;74.40
913;DHT22;443;51.448;7.028;2023-05-07T09:28:45;16.70;74.40
913;DHT22;443;51.448;7.028;2023-05-07T09:31:12;16.70;74.40
913;DHT22;443;51.448;7.028;2023-05-07T09:33:40;16.70;74.10
913;DHT22;443;51.448;7.028;2023-05-07T09:36:08;16.80;74.10
913;DHT22;443;51.448;7.028;2023-05-07T09:38:36;16.80;74.10
913;DHT22;443;51.448;7.028;2023-05-07T09:41:06;16.80;74.40
913;DHT22;443;51.448;7.028;2023-05-07T09:43:34;16.80;74.30
913;DHT22;443;51.448;7.028;2023-05-07T09:46:07;16.80;74.20
913;DHT22;443;51.448;7.028;2023-05-07T09:48:37;16.80;74.30
913;DHT22;443;51.448;7.028;2023-05-07T09:51:11;16.80;74.10
913;DHT22;443;51.448;7.028;2023-05-07T09:53:40;16.80;73.70
913;DHT22;443;51.448;7.028;2023-05-07T09:56:09;16.80;73.80
913;DHT22;443;51.448;7.028;2023-05-07T09:58:37;16.80;74.00
913;DHT22;443;51.448;7.028;2023-05-07T10:01:05;16.80;74.10
913;DHT22;443;51.448;7.028;2023-05-07T10:03:34;16.80;74.00
913;DHT22;443;51.448;7.028;2023-05-07T10:06:02;16.80;74.10
913;DHT22;443;51.448;7.028;2023-05-07T10:08:30;16.80;74.00
913;DHT22;443;51.448;7.028;2023-05-07T10:10:57;16.80;74.00
913;DHT22;443;51.448;7.028;2023-05-07T10:13:26;16.80;73.90
913;DHT22;443;51.448;7.028;2023-05-07T10:15:53;16.80;73.90
913;DHT22;443;51.448;7.028;2023-05-07T10:18:22;16.80;74.00
913;DHT22;443;51.448;7.028;2023-05-07T10:20:54;16.80;74.00
913;DHT22;443;51.448;7.028;2023-05-07T10:23:24;16.80;73.90
913;DHT22;443;51.448;7.028;2023-05-07T10:25:53;16.80;73.60
913;DHT22;443;51.448;7.028;2023-05-07T10:28:21;16.90;74.20
913;DHT22;443;51.448;7.028;2023-05-07T10:31:01;16.90;74.10
913;DHT22;443;51.448;7.028;2023-05-07T10:33:31;16.90;73.90
913;DHT22;443;51.448;7.028;2023-05-07T10:36:00;16.90;73.90
913;DHT22;443;51.448;7.028;2023-05-07T10:38:30;16.90;73.90
913;DHT22;443;51.448;7.028;2023-05-07T10:40:57;16.90;73.60
913;DHT22;443;51.448;7.028;2023-05-07T10:43:24;16.90;73.50
913;DHT22;443;51.448;7.028;2023-05-07T10:46:13;16.90;73.50
913;DHT22;443;51.448;7.028;2023-05-07T10:49:07;16.90;73.90
913;DHT22;443;51.448;7.028;2023-05-07T10:51:36;16.90;73.80
913;DHT22;443;51.448;7.028;2023-05-07T10:54:23;16.90;73.80
913;DHT22;443;51.448;7.028;2023-05-07T10:56:52;16.90;73.80
913;DHT22;443;51.448;7.028;2023-05-07T10:59:38;16.90;73.50
913;DHT22;443;51.448;7.028;2023-05-07T11:02:09;16.90;73.70
913;DHT22;443;51.448;7.028;2023-05-07T11:04:37;16.90;73.70
913;DHT22;443;51.448;7.028;2023-05-07T11:07:24;16.90;73.70
913;DHT22;443;51.448;7.028;2023-05-07T11:09:57;16.90;73.70
913;DHT22;443;51.448;7.028;2023-05-07T11:12:54;16.90;73.70
913;DHT22;443;51.448;7.028;2023-05-07T11:15:41;16.90;73.50
913;DHT22;443;51.448;7.028;2023-05-07T11:18:11;16.90;73.60
913;DHT22;443;51.448;7.028;2023-05-07T11:20:55;16.90;73.60
913;DHT22;443;51.448;7.028;2023-05-07T11:26:47;16.90;73.50
913;DHT22;443;51.448;7.028;2023-05-07T11:29:16;17.00;73.70
913;DHT22;443;51.448;7.028;2023-05-07T11:31:43;17.00;73.70
913;DHT22;443;51.448;7.028;2023-05-07T11:34:11;17.00;73.80
913;DHT22;443;51.448;7.028;2023-05-07T11:36:42;17.00;73.80
913;DHT22;443;51.448;7.028;2023-05-07T11:39:30;17.00;73.40
913;DHT22;443;51.448;7.028;2023-05-07T11:41:58;17.00;73.30
913;DHT22;443;51.448;7.028;2023-05-07T11:44:25;17.00;73.50
913;DHT22;443;51.448;7.028;2023-05-07T11:46:51;17.00;73.30
913;DHT22;443;51.448;7.028;2023-05-07T11:49:19;17.00;73.50
913;DHT22;443;51.448;7.028;2023-05-07T11:51:46;17.00;73.40
913;DHT22;443;51.448;7.028;2023-05-07T11:54:16;17.00;73.00
913;DHT22;443;51.448;7.028;2023-05-07T11:56:44;17.00;73.20
913;DHT22;443;51.448;7.028;2023-05-07T11:59:16;17.00;73.40
913;DHT22;443;51.448;7.028;2023-05-07T12:01:45;17.00;72.90
913;DHT22;443;51.448;7.028;2023-05-07T12:04:12;17.00;73.10
913;DHT22;443;51.448;7.028;2023-05-07T12:06:40;17.00;72.90
913;DHT22;443;51.448;7.028;2023-05-07T12:09:07;17.00;73.20
913;DHT22;443;51.448;7.028;2023-05-07T12:11:36;17.00;73.00
913;DHT22;443;51.448;7.028;2023-05-07T12:14:05;17.00;72.90
913;DHT22;443;51.448;7.028;2023-05-07T12:16:32;17.00;72.80
913;DHT22;443;51.448;7.028;2023-05-07T12:18:59;17.00;72.90
913;DHT22;443;51.448;7.028;2023-05-07T12:21:26;17.00;73.10
913;DHT22;443;51.448;7.028;2023-05-07T12:23:55;17.00;72.80
913;DHT22;443;51.448;7.028;2023-05-07T12:26:22;17.00;73.10
913;DHT22;443;51.448;7.028;2023-05-07T12:28:49;17.00;72.90
913;DHT22;443;51.448;7.028;2023-05-07T12:31:16;17.00;73.20
913;DHT22;443;51.448;7.028;2023-05-07T12:33:43;17.00;72.90
913;DHT22;443;51.448;7.028;2023-05-07T12:36:12;17.00;72.90
913;DHT22;443;51.448;7.028;2023-05-07T12:38:40;17.00;72.80
913;DHT22;443;51.448;7.028;2023-05-07T12:41:09;17.00;73.30
913;DHT22;443;51.448;7.028;2023-05-07T12:43:37;17.00;73.10
913;DHT22;443;51.448;7.028;2023-05-07T12:46:05;17.00;73.20
913;DHT22;443;51.448;7.028;2023-05-07T12:48:33;17.00;73.20
913;DHT22;443;51.448;7.028;2023-05-07T12:51:00;17.00;73.00
913;DHT22;443;51.448;7.028;2023-05-07T12:53:29;17.00;73.20
913;DHT22;443;51.448;7.028;2023-05-07T12:55:57;17.00;73.20
913;DHT22;443;51.448;7.028;2023-05-07T12:58:26;17.00;73.40
913;DHT22;443;51.448;7.028;2023-05-07T13:00:55;17.00;73.30
913;DHT22;443;51.448;7.028;2023-05-07T13:03:25;17.00;73.50
913;DHT22;443;51.448;7.028;2023-05-07T13:05:53;17.00;73.50
913;DHT22;443;51.448;7.028;2023-05-07T13:08:25;17.00;73.50
913;DHT22;443;51.448;7.028;2023-05-07T13:10:52;17.00;73.70
913;DHT22;443;51.448;7.028;2023-05-07T13:13:19;17.00;73.70
913;DHT22;443;51.448;7.028;2023-05-07T13:15:47;17.00;73.80
913;DHT22;443;51.448;7.028;2023-05-07T13:18:14;17.00;73.70
913;DHT22;443;51.448;7.028;2023-05-07T13:20:41;17.00;73.80
913;DHT22;443;51.448;7.028;2023-05-07T13:23:07;17.00;73.80
913;DHT22;443;51.448;7.028;2023-05-07T13:25:34;16.90;73.50
913;DHT22;443;51.448;7.028;2023-05-07T13:28:01;16.90;73.50
913;DHT22;443;51.448;7.028;2023-05-07T13:30:28;17.00;73.70
913;DHT22;443;51.448;7.028;2023-05-07T13:32:56;16.90;73.80
913;DHT22;443;51.448;7.028;2023-05-07T13:35:23;16.90;73.70
913;DHT22;443;51.448;7.028;2023-05-07T13:37:50;16.90;73.60
913;DHT22;443;51.448;7.028;2023-05-07T13:40:17;16.90;73.60
913;DHT22;443;51.448;7.028;2023-05-07T13:42:45;16.90;73.70
913;DHT22;443;51.448;7.028;2023-05-07T13:45:12;16.90;73.80
913;DHT22;443;51.448;7.028;2023-05-07T13:47:39;16.90;73.70
913;DHT22;443;51.448;7.028;2023-05-07T13:50:09;16.90;73.80
913;DHT22;443;51.448;7.028;2023-05-07T13:52:36;16.90;73.80
913;DHT22;443;51.448;7.028;2023-05-07T13:55:06;16.90;73.90
913;DHT22;443;51.448;7.028;2023-05-07T13:57:33;16.90;74.10
913;DHT22;443;51.448;7.028;2023-05-07T14:00:00;16.90;74.10
913;DHT22;443;51.448;7.028;2023-05-07T14:02:26;16.90;73.90
913;DHT22;443;51.448;7.028;2023-05-07T14:04:53;16.90;74.00
913;DHT22;443;51.448;7.028;2023-05-07T14:07:21;16.90;73.90
913;DHT22;443;51.448;7.028;2023-05-07T14:09:48;16.90;73.90
913;DHT22;443;51.448;7.028;2023-05-07T14:12:15;16.90;74.00
913;DHT22;443;51.448;7.028;2023-05-07T14:14:41;16.90;73.90
913;DHT22;443;51.448;7.028;2023-05-07T14:17:08;16.90;74.00
913;DHT22;443;51.448;7.028;2023-05-07T14:19:35;16.90;74.00
913;DHT22;443;51.448;7.028;2023-05-07T14:22:01;16.90;74.10
913;DHT22;443;51.448;7.028;2023-05-07T14:24:30;16.90;74.10
913;DHT22;443;51.448;7.028;2023-05-07T14:26:56;16.90;74.20
913;DHT22;443;51.448;7.028;2023-05-07T14:29:23;16.90;74.10
913;DHT22;443;51.448;7.028;2023-05-07T14:31:50;16.90;74.20
913;DHT22;443;51.448;7.028;2023-05-07T14:34:16;16.90;74.20
913;DHT22;443;51.448;7.028;2023-05-07T14:36:43;16.90;74.20
913;DHT22;443;51.448;7.028;2023-05-07T14:39:10;16.90;74.20
913;DHT22;443;51.448;7.028;2023-05-07T14:41:38;16.90;74.20
913;DHT22;443;51.448;7.028;2023-05-07T14:44:05;16.90;74.20
913;DHT22;443;51.448;7.028;2023-05-07T14:46:32;16.90;74.20
913;DHT22;443;51.448;7.028;2023-05-07T14:48:58;16.90;74.30
913;DHT22;443;51.448;7.028;2023-05-07T14:51:25;16.90;74.20
913;DHT22;443;51.448;7.028;2023-05-07T14:53:53;16.90;74.20
913;DHT22;443;51.448;7.028;2023-05-07T14:56:20;16.90;74.20
913;DHT22;443;51.448;7.028;2023-05-07T14:58:48;16.90;74.20
913;DHT22;443;51.448;7.028;2023-05-07T15:01:15;16.90;74.20
913;DHT22;443;51.448;7.028;2023-05-07T15:03:42;16.90;74.30
913;DHT22;443;51.448;7.028;2023-05-07T15:06:09;16.90;74.30
913;DHT22;443;51.448;7.028;2023-05-07T15:08:36;16.90;74.30
913;DHT22;443;51.448;7.028;2023-05-07T15:11:02;16.90;75.10
913;DHT22;443;51.448;7.028;2023-05-07T15:13:29;16.90;74.30
913;DHT22;443;51.448;7.028;2023-05-07T15:15:57;16.90;74.30
913;DHT22;443;51.448;7.028;2023-05-07T15:18:24;16.90;74.50
913;DHT22;443;51.448;7.028;2023-05-07T15:20:51;16.90;74.40
913;DHT22;443;51.448;7.028;2023-05-07T15:23:18;16.90;74.40
913;DHT22;443;51.448;7.028;2023-05-07T15:25:44;16.90;74.40
913;DHT22;443;51.448;7.028;2023-05-07T15:28:11;16.80;74.40
913;DHT22;443;51.448;7.028;2023-05-07T15:30:38;16.90;74.50
913;DHT22;443;51.448;7.028;2023-05-07T15:33:06;16.80;74.40
913;DHT22;443;51.448;7.028;2023-05-07T15:35:33;16.80;74.40
913;DHT22;443;51.448;7.028;2023-05-07T15:37:59;16.80;74.50
913;DHT22;443;51.448;7.028;2023-05-07T15:40:28;16.80;74.50
913;DHT22;443;51.448;7.028;2023-05-07T15:42:55;16.80;74.40
913;DHT22;443;51.448;7.028;2023-05-07T15:45:23;16.80;74.50
913;DHT22;443;51.448;7.028;2023-05-07T15:47:50;16.80;74.40
913;DHT22;443;51.448;7.028;2023-05-07T15:50:18;16.80;74.40
913;DHT22;443;51.448;7.028;2023-05-07T15:52:45;16.80;74.40
913;DHT22;443;51.448;7.028;2023-05-07T15:55:12;16.80;74.40
913;DHT22;443;51.448;7.028;2023-05-07T15:57:39;16.80;74.60
913;DHT22;443;51.448;7.028;2023-05-07T16:00:07;16.80;74.50
913;DHT22;443;51.448;7.028;2023-05-07T16:02:36;16.80;74.40
913;DHT22;443;51.448;7.028;2023-05-07T16:05:05;16.80;74.50
913;DHT22;443;51.448;7.028;2023-05-07T16:07:35;16.80;74.50
913;DHT22;443;51.448;7.028;2023-05-07T16:10:02;16.80;74.40
913;DHT22;443;51.448;7.028;2023-05-07T16:12:29;16.80;74.50
913;DHT22;443;51.448;7.028;2023-05-07T16:14:56;16.80;74.40
913;DHT22;443;51.448;7.028;2023-05-07T16:17:23;16.80;74.60
913;DHT22;443;51.448;7.028;2023-05-07T16:19:50;16.80;74.50
913;DHT22;443;51.448;7.028;2023-05-07T16:22:17;16.80;74.50
913;DHT22;443;51.448;7.028;2023-05-07T16:24:45;16.80;74.60
913;DHT22;443;51.448;7.028;2023-05-07T16:27:12;16.80;74.70
913;DHT22;443;51.448;7.028;2023-05-07T16:29:39;16.80;74.60
913;DHT22;443;51.448;7.028;2023-05-07T16:32:06;16.80;74.50
913;DHT22;443;51.448;7.028;2023-05-07T16:34:33;16.80;74.60
913;DHT22;443;51.448;7.028;2023-05-07T16:36:59;16.80;74.60
913;DHT22;443;51.448;7.028;2023-05-07T16:39:26;16.80;74.70
913;DHT22;443;51.448;7.028;2023-05-07T16:41:54;16.80;74.70